createdAt,value
2018-08-30T00:01:30.781Z,19.80
2018-08-30T00:03:58.874Z,19.60
2018-08-30T00:06:26.551Z,19.60
2018-08-30T00:08:54.327Z,19.70
2018-08-30T00:11:22.577Z,19.60
2018-08-30T00:13:50.239Z,19.70
2018-08-30T00:16:18.420Z,19.90
2018-08-30T00:18:46.192Z,19.90
2018-08-30T00:21:14.101Z,19.80
2018-08-30T00:23:41.784Z,19.90
2018-08-30T00:26:09.621Z,19.70
2018-08-30T00:28:37.332Z,19.80
2018-08-30T00:31:05.054Z,19.90
2018-08-30T00:33:32.794Z,20.10
2018-08-30T00:36:00.677Z,20.00
2018-08-30T00:38:28.311Z,20.00
2018-08-30T00:40:56.387Z,20.00
2018-08-30T00:43:24.071Z,20.00
2018-08-30T00:45:51.769Z,19.90
2018-08-30T00:48:19.556Z,19.90
2018-08-30T00:50:47.258Z,19.70
2018-08-30T00:53:14.931Z,19.70
2018-08-30T00:55:42.999Z,19.70
2018-08-30T00:58:10.896Z,19.50
2018-08-30T01:00:38.569Z,19.30
2018-08-30T01:03:06.622Z,19.10
2018-08-30T01:05:34.488Z,18.90
2018-08-30T01:08:02.245Z,18.90
2018-08-30T01:10:29.965Z,19.20
2018-08-30T01:12:57.684Z,19.30
2018-08-30T01:15:26.824Z,19.30
2018-08-30T01:17:55.017Z,19.10
2018-08-30T01:20:23.198Z,19.10
2018-08-30T01:22:51.168Z,19.10
2018-08-30T01:25:18.859Z,19.10
2018-08-30T01:27:46.604Z,19.00
2018-08-30T01:30:14.298Z,19.00
2018-08-30T01:32:41.967Z,18.80
2018-08-30T01:35:09.894Z,18.80
2018-08-30T01:37:39.796Z,18.90
2018-08-30T01:40:07.675Z,18.70
2018-08-30T01:42:35.380Z,18.60
2018-08-30T01:45:03.116Z,18.60
2018-08-30T01:47:30.867Z,18.40
2018-08-30T01:49:58.712Z,18.30
2018-08-30T01:52:27.339Z,18.30
2018-08-30T01:54:55.088Z,18.40
2018-08-30T01:57:23.048Z,18.60
2018-08-30T01:59:51.207Z,18.70
2018-08-30T02:02:18.858Z,18.50
2018-08-30T02:04:46.553Z,18.20
2018-08-30T02:07:14.272Z,18.30
2018-08-30T02:09:41.948Z,18.30
2018-08-30T02:12:09.756Z,18.20
2018-08-30T02:14:37.435Z,18.30
2018-08-30T02:17:05.312Z,18.40
2018-08-30T02:19:33.136Z,18.30
2018-08-30T02:22:00.837Z,18.10
2018-08-30T02:24:28.520Z,18.30
2018-08-30T02:26:56.195Z,18.10
2018-08-30T02:29:23.908Z,17.80
2018-08-30T02:31:51.728Z,17.70
2018-08-30T02:34:19.400Z,18.00
2018-08-30T02:36:46.986Z,18.20
2018-08-30T02:39:14.623Z,18.30
2018-08-30T02:41:45.191Z,18.40
2018-08-30T02:44:13.335Z,18.40
2018-08-30T02:46:42.732Z,18.40
2018-08-30T02:49:15.548Z,18.40
2018-08-30T02:51:44.055Z,18.60
2018-08-30T02:54:11.680Z,18.50
2018-08-30T02:56:39.319Z,18.40
2018-08-30T02:59:07.243Z,18.50
2018-08-30T03:01:34.847Z,18.50
2018-08-30T03:04:02.550Z,18.50
2018-08-30T03:06:30.770Z,18.60
2018-08-30T03:08:58.800Z,18.50
2018-08-30T03:11:26.479Z,18.50
2018-08-30T03:13:54.103Z,18.50
2018-08-30T03:16:21.933Z,18.40
2018-08-30T03:18:51.029Z,18.40
2018-08-30T03:21:19.407Z,18.30
2018-08-30T03:23:47.119Z,18.30
2018-08-30T03:26:14.802Z,18.10
2018-08-30T03:28:43.241Z,18.00
2018-08-30T03:31:10.879Z,18.10
2018-08-30T03:33:38.457Z,18.10
2018-08-30T03:36:06.057Z,17.90
2018-08-30T03:38:33.647Z,17.90
2018-08-30T03:41:01.524Z,17.90
2018-08-30T03:43:29.111Z,17.90
2018-08-30T03:45:56.733Z,17.70
2018-08-30T03:48:24.484Z,17.80
2018-08-30T03:50:52.388Z,17.80
2018-08-30T03:53:19.980Z,17.80
2018-08-30T03:55:48.006Z,18.00
2018-08-30T03:58:15.944Z,18.00
2018-08-30T04:00:43.511Z,18.00
2018-08-30T04:03:11.153Z,18.20
2018-08-30T04:05:39.179Z,18.30
2018-08-30T04:08:06.788Z,18.40
2018-08-30T04:10:34.399Z,18.30
2018-08-30T04:13:02.358Z,18.30
2018-08-30T04:15:29.974Z,18.20
2018-08-30T04:17:57.644Z,18.00
2018-08-30T04:20:26.225Z,18.10
2018-08-30T04:22:53.945Z,18.00
2018-08-30T04:25:21.565Z,18.00
2018-08-30T04:27:49.594Z,18.10
2018-08-30T04:30:17.201Z,18.20
2018-08-30T04:32:44.811Z,18.20
2018-08-30T04:35:14.347Z,18.30
2018-08-30T04:37:41.926Z,18.20
2018-08-30T04:40:09.531Z,18.20
2018-08-30T04:42:37.596Z,18.00
2018-08-30T04:45:05.656Z,17.80
2018-08-30T04:47:33.251Z,17.90
2018-08-30T04:50:01.248Z,17.80
2018-08-30T04:52:28.815Z,17.70
2018-08-30T04:54:56.631Z,18.00
2018-08-30T04:57:24.824Z,17.80
2018-08-30T04:59:52.910Z,18.00
2018-08-30T05:02:20.481Z,18.10
2018-08-30T05:04:48.885Z,17.90
2018-08-30T05:07:16.729Z,18.10
2018-08-30T05:09:44.320Z,18.00
2018-08-30T05:12:12.425Z,18.10
2018-08-30T05:14:40.007Z,18.10
2018-08-30T05:17:07.623Z,18.00
2018-08-30T05:19:38.047Z,18.10
2018-08-30T05:22:05.677Z,18.20
2018-08-30T05:24:33.284Z,18.20
2018-08-30T05:27:01.219Z,18.10
2018-08-30T05:29:28.803Z,18.20
2018-08-30T05:31:56.441Z,18.10
2018-08-30T05:34:24.395Z,18.10
2018-08-30T05:36:52.066Z,18.20
2018-08-30T05:39:19.787Z,18.20
2018-08-30T05:41:47.831Z,18.30
2018-08-30T05:44:15.412Z,18.30
2018-08-30T05:46:43.278Z,18.40
2018-08-30T05:52:18.419Z,18.10
2018-08-30T05:54:46.285Z,18.10
2018-08-30T05:57:14.001Z,18.20
2018-08-30T05:59:41.612Z,18.40
2018-08-30T06:02:09.675Z,18.50
2018-08-30T06:04:37.279Z,18.40
2018-08-30T06:07:04.908Z,18.30
2018-08-30T06:09:33.009Z,18.20
2018-08-30T06:12:00.738Z,18.40
2018-08-30T06:14:28.372Z,18.60
2018-08-30T06:16:56.412Z,18.80
2018-08-30T06:19:24.024Z,18.90
2018-08-30T06:21:51.613Z,18.90
2018-08-30T06:24:19.647Z,18.80
2018-08-30T06:26:47.319Z,18.80
2018-08-30T06:29:15.567Z,18.60
2018-08-30T06:31:43.414Z,18.60
2018-08-30T06:34:10.972Z,18.50
2018-08-30T06:36:38.632Z,18.60
2018-08-30T06:39:06.707Z,18.60
2018-08-30T06:41:34.384Z,18.80
2018-08-30T06:44:02.000Z,18.90
2018-08-30T06:46:30.038Z,18.90
2018-08-30T06:48:58.303Z,18.90
2018-08-30T06:51:25.795Z,18.80
2018-08-30T06:53:53.843Z,18.80
2018-08-30T06:56:21.739Z,18.70
2018-08-30T06:58:49.347Z,18.70
2018-08-30T07:01:17.841Z,18.70
2018-08-30T07:03:45.483Z,18.70
2018-08-30T07:06:17.337Z,18.70
2018-08-30T07:08:45.339Z,18.70
2018-08-30T07:11:13.087Z,18.80
2018-08-30T07:13:40.711Z,18.70
2018-08-30T07:16:08.803Z,18.80
2018-08-30T07:18:36.567Z,18.80
2018-08-30T07:21:04.987Z,19.10
2018-08-30T07:23:32.975Z,19.20
2018-08-30T07:26:01.403Z,19.20
2018-08-30T07:28:31.344Z,18.90
2018-08-30T07:30:59.507Z,18.40
2018-08-30T07:33:27.113Z,18.70
2018-08-30T07:35:55.822Z,19.00
2018-08-30T07:38:24.215Z,19.00
2018-08-30T07:40:51.843Z,19.00
2018-08-30T07:43:19.416Z,18.90
2018-08-30T07:45:47.441Z,18.90
2018-08-30T07:48:15.104Z,18.90
2018-08-30T07:50:42.781Z,19.10
2018-08-30T07:53:10.923Z,19.30
2018-08-30T07:55:38.701Z,19.40
2018-08-30T07:58:06.383Z,19.20
2018-08-30T08:00:34.429Z,19.10
2018-08-30T08:03:02.070Z,18.90
2018-08-30T08:05:29.672Z,18.90
2018-08-30T08:07:57.876Z,18.80
2018-08-30T08:10:25.526Z,18.80
2018-08-30T08:19:07.967Z,18.80
2018-08-30T08:21:35.687Z,18.50
2018-08-30T08:24:03.348Z,18.20
2018-08-30T08:26:31.404Z,18.30
2018-08-30T08:28:59.200Z,18.40
2018-08-30T08:31:26.825Z,18.20
2018-08-30T08:33:54.707Z,18.20
2018-08-30T08:36:22.380Z,17.90
2018-08-30T08:38:50.352Z,17.90
2018-08-30T08:41:18.428Z,18.10
2018-08-30T08:43:46.657Z,17.70
2018-08-30T08:46:14.315Z,17.80
2018-08-30T08:48:42.339Z,17.40
2018-08-30T08:51:09.971Z,17.20
2018-08-30T08:53:37.661Z,17.50
2018-08-30T08:56:14.808Z,17.60
2018-08-30T08:58:57.448Z,17.80
2018-08-30T09:01:27.007Z,17.80
2018-08-30T09:03:54.632Z,17.60
2018-08-30T09:06:24.759Z,17.60
2018-08-30T09:12:02.809Z,17.30
2018-08-30T09:15:09.622Z,17.40
2018-08-30T09:17:41.081Z,17.60
2018-08-30T09:20:10.348Z,17.60
2018-08-30T09:23:01.745Z,17.80
2018-08-30T09:25:38.758Z,18.10
2018-08-30T09:28:06.464Z,17.70
2018-08-30T09:30:40.753Z,17.40
2018-08-30T09:33:11.714Z,17.40
2018-08-30T09:35:39.385Z,17.30
2018-08-30T09:38:19.885Z,17.30
2018-08-30T09:40:54.060Z,17.20
2018-08-30T09:46:54.587Z,17.10
2018-08-30T09:49:34.648Z,16.60
2018-08-30T09:52:09.583Z,16.60
2018-08-30T09:54:37.846Z,16.40
2018-08-30T09:57:15.058Z,16.50
2018-08-30T09:59:59.664Z,16.80
2018-08-30T10:02:41.344Z,17.10
2018-08-30T10:05:11.445Z,17.30
2018-08-30T10:10:57.832Z,17.60
2018-08-30T10:13:28.647Z,17.60
2018-08-30T10:15:57.083Z,17.90
2018-08-30T10:18:30.711Z,18.00
2018-08-30T10:21:04.695Z,18.00
2018-08-30T10:23:45.302Z,17.90
2018-08-30T10:26:16.094Z,17.80
2018-08-30T10:28:44.584Z,17.80
2018-08-30T10:31:15.163Z,17.90
2018-08-30T10:33:44.310Z,17.60
2018-08-30T10:36:12.384Z,17.40
2018-08-30T10:38:40.035Z,17.60
2018-08-30T10:41:07.724Z,17.70
2018-08-30T10:43:35.727Z,17.80
2018-08-30T10:46:03.385Z,17.70
2018-08-30T10:48:31.080Z,17.70
2018-08-30T10:51:01.131Z,17.70
2018-08-30T10:53:28.849Z,17.70
2018-08-30T10:55:59.610Z,17.80
2018-08-30T10:58:27.825Z,17.50
2018-08-30T11:00:55.576Z,17.10
2018-08-30T11:03:23.240Z,16.90
2018-08-30T11:05:51.371Z,16.80
2018-08-30T11:08:18.964Z,16.90
2018-08-30T11:10:47.822Z,16.80
2018-08-30T11:13:16.124Z,16.70
2018-08-30T11:15:43.818Z,16.80
2018-08-30T11:18:11.598Z,16.80
2018-08-30T11:20:39.713Z,17.10
2018-08-30T11:26:15.027Z,16.70
2018-08-30T11:31:49.870Z,16.70
2018-08-30T11:34:17.565Z,16.50
2018-08-30T11:36:46.271Z,16.70
2018-08-30T11:39:14.289Z,16.60
2018-08-30T11:41:51.025Z,16.60
2018-08-30T11:44:18.791Z,16.90
2018-08-30T11:46:52.259Z,16.90
2018-08-30T11:49:19.935Z,17.10
2018-08-30T11:51:47.578Z,16.90
2018-08-30T11:54:15.323Z,17.00
2018-08-30T11:56:43.018Z,17.10
2018-08-30T11:59:10.627Z,17.00
2018-08-30T12:01:38.809Z,17.10
2018-08-30T12:04:08.027Z,17.10
2018-08-30T12:06:35.691Z,17.30
2018-08-30T12:09:04.490Z,17.50
2018-08-30T12:11:32.127Z,17.60
2018-08-30T12:13:59.756Z,17.60
2018-08-30T12:16:27.785Z,17.40
2018-08-30T12:18:55.625Z,17.30
2018-08-30T12:21:23.340Z,17.40
2018-08-30T12:23:51.484Z,17.20
2018-08-30T12:26:19.365Z,17.20
2018-08-30T12:28:47.410Z,16.90
2018-08-30T12:31:15.409Z,16.90
2018-08-30T12:33:43.677Z,17.00
2018-08-30T12:36:11.891Z,17.30
2018-08-30T12:38:40.698Z,17.40
2018-08-30T12:41:08.944Z,17.60
2018-08-30T12:43:38.633Z,17.60
2018-08-30T12:46:07.077Z,17.70
2018-08-30T12:48:34.860Z,17.70
2018-08-30T12:51:03.468Z,17.60
2018-08-30T12:53:33.324Z,17.50
2018-08-30T12:56:01.769Z,17.40
2018-08-30T13:04:48.441Z,17.10
2018-08-30T13:07:19.983Z,17.10
2018-08-30T13:09:53.985Z,17.10
2018-08-30T13:12:21.941Z,17.10
2018-08-30T13:14:51.228Z,17.10
2018-08-30T13:17:18.675Z,17.10
2018-08-30T13:20:01.831Z,17.20
2018-08-30T13:22:36.242Z,17.50
2018-08-30T13:25:04.039Z,17.60
2018-08-30T13:27:33.879Z,17.30
2018-08-30T13:30:01.721Z,16.80
2018-08-30T13:32:30.094Z,16.90
2018-08-30T13:34:57.792Z,16.90
2018-08-30T13:37:27.146Z,17.10
2018-08-30T13:39:55.577Z,16.90
2018-08-30T13:42:32.273Z,16.60
2018-08-30T13:45:07.524Z,16.50
2018-08-30T13:47:39.152Z,16.90
2018-08-30T13:50:07.666Z,17.10
2018-08-30T13:52:44.595Z,17.20
2018-08-30T13:55:17.813Z,17.30
2018-08-30T13:57:45.883Z,17.10
2018-08-30T14:00:13.684Z,17.20
2018-08-30T14:02:41.077Z,17.20
2018-08-30T14:05:09.428Z,17.20
2018-08-30T14:07:37.092Z,17.30
2018-08-30T14:10:04.913Z,17.10
2018-08-30T14:12:32.972Z,17.00
2018-08-30T14:15:00.824Z,17.00
2018-08-30T14:17:28.393Z,17.10
2018-08-30T14:19:57.386Z,17.40
2018-08-30T14:22:26.165Z,17.60
2018-08-30T14:24:54.292Z,17.50
2018-08-30T14:27:24.854Z,17.50
2018-08-30T14:29:54.316Z,17.40
2018-08-30T14:32:35.647Z,17.00
2018-08-30T14:35:03.958Z,17.00
2018-08-30T14:37:31.600Z,17.10
2018-08-30T14:39:59.391Z,17.20
2018-08-30T14:42:27.458Z,17.40
2018-08-30T14:44:55.715Z,17.50
2018-08-30T14:47:27.463Z,17.50
2018-08-30T14:49:56.824Z,17.40
2018-08-30T14:52:25.335Z,17.30
2018-08-30T14:54:53.080Z,17.30
2018-08-30T14:57:23.153Z,17.20
2018-08-30T14:59:51.478Z,17.30
2018-08-30T15:02:19.333Z,17.20
2018-08-30T15:04:47.293Z,16.90
2018-08-30T15:07:15.087Z,16.70
2018-08-30T15:09:42.798Z,16.90
2018-08-30T15:12:10.954Z,16.90
2018-08-30T15:14:38.686Z,17.00
2018-08-30T15:17:06.462Z,17.10
2018-08-30T15:20:09.104Z,17.20
2018-08-30T15:23:04.467Z,17.20
2018-08-30T15:25:45.973Z,17.10
2018-08-30T15:28:14.223Z,17.20
2018-08-30T15:30:41.914Z,17.20
2018-08-30T15:33:09.765Z,17.10
2018-08-30T15:35:57.148Z,17.00
2018-08-30T15:41:46.138Z,16.90
2018-08-30T15:44:14.018Z,16.80
2018-08-30T15:46:41.916Z,16.70
2018-08-30T15:49:09.927Z,16.70
2018-08-30T15:51:37.868Z,16.80
2018-08-30T15:54:06.124Z,16.80
2018-08-30T15:56:33.833Z,16.80
2018-08-30T15:59:02.117Z,17.00
2018-08-30T16:01:29.999Z,17.30
2018-08-30T16:03:58.307Z,17.40
2018-08-30T16:06:25.984Z,17.10
2018-08-30T16:08:58.180Z,16.70
2018-08-30T16:11:31.873Z,16.60
2018-08-30T16:13:59.751Z,16.80
2018-08-30T16:16:27.598Z,16.80
2018-08-30T16:18:55.529Z,17.00
2018-08-30T16:21:23.710Z,17.10
2018-08-30T16:23:53.132Z,17.20
2018-08-30T16:26:21.083Z,17.20
2018-08-30T16:28:49.205Z,17.20
2018-08-30T16:31:16.890Z,17.20
2018-08-30T16:33:44.818Z,17.10
2018-08-30T16:36:15.755Z,16.90
2018-08-30T16:38:45.173Z,17.00
2018-08-30T16:41:14.112Z,17.00
2018-08-30T16:43:46.781Z,17.20
2018-08-30T16:46:17.523Z,17.30
2018-08-30T16:48:45.120Z,17.50
2018-08-30T16:51:13.186Z,17.40
2018-08-30T16:53:40.903Z,17.50
2018-08-30T16:56:40.048Z,17.70
2018-08-30T16:59:10.124Z,17.80
2018-08-30T17:01:39.201Z,17.70
2018-08-30T17:04:10.033Z,17.50
2018-08-30T17:06:38.415Z,17.50
2018-08-30T17:09:06.724Z,17.40
2018-08-30T17:11:34.433Z,17.40
2018-08-30T17:14:14.358Z,17.40
2018-08-30T17:16:46.117Z,17.40
2018-08-30T17:19:19.554Z,17.40
2018-08-30T17:21:53.708Z,17.20
2018-08-30T17:24:21.904Z,17.20
2018-08-30T17:26:49.612Z,17.10
2018-08-30T17:29:17.294Z,17.00
2018-08-30T17:31:45.355Z,16.80
2018-08-30T17:34:13.133Z,16.90
2018-08-30T17:36:41.446Z,16.80
2018-08-30T17:39:10.631Z,16.90
2018-08-30T17:41:41.763Z,17.00
2018-08-30T17:44:10.948Z,16.80
2018-08-30T17:46:39.264Z,16.70
2018-08-30T17:49:10.964Z,16.50
2018-08-30T17:51:39.047Z,16.30
2018-08-30T17:54:07.210Z,16.10
2018-08-30T17:56:35.676Z,16.20
2018-08-30T17:59:03.351Z,16.40
2018-08-30T18:01:31.879Z,16.50
2018-08-30T18:04:02.648Z,16.60
2018-08-30T18:06:30.312Z,16.60
2018-08-30T18:08:58.575Z,16.60
2018-08-30T18:11:26.471Z,16.50
2018-08-30T18:13:54.305Z,16.40
2018-08-30T18:16:22.360Z,16.40
2018-08-30T18:18:53.807Z,16.30
2018-08-30T18:21:23.277Z,16.20
2018-08-30T18:23:51.270Z,16.20
2018-08-30T18:26:19.243Z,16.20
2018-08-30T18:28:46.971Z,16.00
2018-08-30T18:31:15.671Z,15.80
2018-08-30T18:33:43.960Z,15.80
2018-08-30T18:36:12.130Z,15.80
2018-08-30T18:38:41.159Z,16.00
2018-08-30T18:41:09.984Z,16.20
2018-08-30T18:43:38.687Z,16.30
2018-08-30T18:46:06.907Z,16.30
2018-08-30T18:48:34.575Z,16.30
2018-08-30T18:51:02.999Z,16.20
2018-08-30T18:53:31.219Z,16.20
2018-08-30T18:55:59.070Z,16.00
2018-08-30T18:58:27.913Z,15.90
2018-08-30T19:00:56.002Z,16.00
2018-08-30T19:03:24.000Z,16.00
2018-08-30T19:05:51.716Z,16.00
2018-08-30T19:08:23.187Z,16.00
2018-08-30T19:10:51.239Z,16.10
2018-08-30T19:13:19.398Z,16.20
2018-08-30T19:15:53.339Z,16.20
2018-08-30T19:19:28.172Z,16.10
2018-08-30T19:21:56.586Z,15.90
2018-08-30T19:24:29.745Z,16.10
2018-08-30T19:26:57.509Z,16.10
2018-08-30T19:29:25.815Z,15.90
2018-08-30T19:31:54.157Z,16.00
2018-08-30T19:34:22.077Z,16.10
2018-08-30T19:36:50.003Z,16.10
2018-08-30T19:39:17.701Z,16.20
2018-08-30T19:41:45.333Z,16.20
2018-08-30T19:44:13.423Z,16.30
2018-08-30T19:46:41.076Z,16.40
2018-08-30T19:49:08.728Z,16.20
2018-08-30T19:51:36.805Z,16.20
2018-08-30T19:54:04.565Z,16.10
2018-08-30T19:56:32.238Z,16.00
2018-08-30T19:59:00.290Z,16.00
2018-08-30T20:01:28.174Z,16.10
2018-08-30T20:04:08.611Z,15.90
2018-08-30T20:06:36.755Z,15.80
2018-08-30T20:09:05.396Z,15.90
2018-08-30T20:11:33.013Z,15.80
2018-08-30T20:14:01.606Z,15.90
2018-08-30T20:16:29.288Z,16.10
2018-08-30T20:18:57.189Z,16.10
2018-08-30T20:21:25.292Z,16.00
2018-08-30T20:23:52.990Z,16.00
2018-08-30T20:26:20.607Z,15.90
2018-08-30T20:28:48.520Z,15.80
2018-08-30T20:31:16.361Z,15.60
2018-08-30T20:33:44.174Z,15.50
2018-08-30T20:36:12.205Z,15.70
2018-08-30T20:38:39.866Z,15.80
2018-08-30T20:41:07.527Z,15.80
2018-08-30T20:43:35.551Z,15.80
2018-08-30T20:46:03.315Z,15.70
2018-08-30T20:48:31.153Z,15.60
2018-08-30T20:50:59.132Z,15.70
2018-08-30T20:53:27.218Z,15.60
2018-08-30T20:55:54.872Z,15.40
2018-08-30T20:58:22.574Z,15.20
2018-08-30T21:00:50.428Z,15.10
2018-08-30T21:03:18.043Z,15.10
2018-08-30T21:05:45.984Z,15.10
2018-08-30T21:08:13.840Z,15.20
2018-08-30T21:10:41.513Z,15.20
2018-08-30T21:13:10.143Z,15.10
2018-08-30T21:15:37.820Z,14.90
2018-08-30T21:18:05.441Z,15.10
2018-08-30T21:20:33.557Z,15.20
2018-08-30T21:23:01.370Z,15.20
2018-08-30T21:25:29.629Z,15.10
2018-08-30T21:27:58.009Z,15.00
2018-08-30T21:30:25.712Z,15.00
2018-08-30T21:32:53.577Z,15.20
2018-08-30T21:35:22.278Z,15.00
2018-08-30T21:37:49.889Z,14.90
2018-08-30T21:40:17.796Z,14.90
2018-08-30T21:42:46.451Z,15.10
2018-08-30T21:45:14.064Z,15.00
2018-08-30T21:47:42.059Z,15.10
2018-08-30T21:50:10.065Z,14.80
2018-08-30T21:52:37.692Z,14.60
2018-08-30T21:55:05.359Z,14.50
2018-08-30T21:57:33.244Z,14.30
2018-08-30T22:00:00.892Z,14.50
2018-08-30T22:02:28.637Z,14.60
2018-08-30T22:04:56.871Z,14.60
2018-08-30T22:07:24.471Z,14.70
2018-08-30T22:09:52.080Z,14.70
2018-08-30T22:12:20.051Z,14.80
2018-08-30T22:14:47.685Z,14.80
2018-08-30T22:17:15.341Z,14.80
2018-08-30T22:19:43.987Z,14.90
2018-08-30T22:22:11.623Z,14.90
2018-08-30T22:24:39.233Z,14.90
2018-08-30T22:27:07.232Z,14.70
2018-08-30T22:29:34.843Z,14.60
2018-08-30T22:32:02.978Z,14.50
2018-08-30T22:34:31.012Z,14.50
2018-08-30T22:36:58.637Z,14.50
2018-08-30T22:39:26.235Z,14.60
2018-08-30T22:41:54.267Z,14.70
2018-08-30T22:44:21.880Z,14.70
2018-08-30T22:46:49.456Z,14.60
2018-08-30T22:49:17.409Z,14.70
2018-08-30T22:51:45.025Z,14.60
2018-08-30T22:54:12.645Z,14.50
2018-08-30T22:56:41.156Z,14.40
2018-08-30T22:59:10.252Z,14.40
2018-08-30T23:01:38.890Z,14.20
2018-08-30T23:04:06.942Z,14.20
2018-08-30T23:06:34.832Z,14.30
2018-08-30T23:09:03.072Z,14.40
2018-08-30T23:11:30.712Z,14.40
2018-08-30T23:13:58.425Z,14.30
2018-08-30T23:16:26.389Z,14.40
2018-08-30T23:18:53.975Z,14.30
2018-08-30T23:21:21.561Z,14.30
2018-08-30T23:23:49.595Z,14.30
2018-08-30T23:26:17.263Z,14.20
2018-08-30T23:28:44.843Z,14.10
2018-08-30T23:31:12.711Z,14.20
2018-08-30T23:33:40.626Z,14.20
2018-08-30T23:36:08.358Z,14.10
2018-08-30T23:38:35.932Z,14.10
2018-08-30T23:41:04.120Z,14.00
2018-08-30T23:43:31.779Z,13.80
2018-08-30T23:45:59.359Z,13.60
2018-08-30T23:48:27.399Z,13.50
2018-08-30T23:50:55.415Z,13.70
2018-08-30T23:53:23.135Z,13.90
2018-08-30T23:55:50.744Z,14.00
2018-08-30T23:58:23.893Z,14.00
